George Bush Intercontinental Houston Airport
KIAH : now visible

Airfield :











YOU CAN JOIN US ON...

 
LOGIN :

Register | Disclaimer

   EN    FR    IT 

 









Legend :    VFR   Marginal VFR   IFR   Intensive IFR   Very Intensive IFR
Visi :
Ceiling :
>= 8 km
>= 3000ft
5 to 8 km
1000 to 3000 ft
1500m to 5 km
500 to 1000 ft
800 to 1500m
200 to 500 ft
< 800m
< 200 ft
Symbols :   Thunderstorms  Fog  Heavy snow  Heavy precipitations  Wind > 20 kt






- Airport Elevation : 97 ft
- IATA code : IAH


KIAH - George Bush Intercontinental Houston

CURRENT METAR :
  • 221353Z 10008KT 7SM BKN005 BKN020 23/23 A2999 RMK AO2 SLP156 T02330228

EXPIRED METARs :
  • 221319Z 10007KT 1 1/2SM BR BKN005 BKN020 23/22 A2999 RMK AO2 SFC VIS 4 T02280222
  • 221253Z 10007KT 1 1/2SM BR OVC004 23/22 A2998 RMK AO2 SFC VIS 3 SLP152 T02280222
  • 221231Z 11006KT 1/4SM BR OVC003 23/22 A2997 RMK AO2 SFC VIS 3 TWR IN CLDS T02280222
  • 221153Z 11007KT 0SM BR BKN003 OVC008 23/22 A2997 RMK AO2 SFC VIS 2 1/2 SLP149 TWR IN CLDS T02280222 10228 20206 53001

TAF KIAH
Valid from the 22 at 14:00 until the 23 at 18:00 UTC


221354Z 2214/2318 10005KT 4SM BR SCT006 OVC025
TEMPO 2214/2215 3SM BR BKN005 BKN020
FM221600 12008KT P6SM SCT008 BKN015
FM221800 13009KT P6SM BKN035
FM230900 VRB03KT 3SM BR BKN005 BKN010
FM231600 VRB04KT P6SM SCT005 BKN015
KZHU FIR / North America



MET'MAP, your aeronautical weather chart ! - Copyright ORBIFLY December 2007 - Disclaimer

ORBIFLY MET'MAP TEAM :

Programming & Development : Alexandra Zaïnal
Concept & original design : Baudouin d'Aumeries
Assistance for programming : Marc-Olivier Méhu
Technical & hardware support : Manuel Goepfert

Contact : metmap@orbifly.com




SOURCES & CREDITS :

   NOAA       Earth
Advisory